Time;durP1;ratioP1;P1;durP2;ratioP2;P2;SDS_P1;SDS_P2;PMS_P1;PMS_P2;Temp;Humidity;BMP_temperature;BMP_pressure;BME280_temperature;BME280_humidity;BME280_pressure;Samples;Min_cycle;Max_cycle;Signal;HPM_P1;HPM_P2
2021/10/17 00:02:57;;;;;;;8.40;2.50;;;19.90;58.30;;;;;;10366935;28;20060;-58
2021/10/17 00:07:58;;;;;;;6.57;1.95;;;19.90;57.80;;;;;;10366095;28;20056;-55
2021/10/17 00:13:01;;;;;;;5.93;2.47;;;19.90;57.80;;;;;;10373230;28;20030;-57
2021/10/17 00:18:04;;;;;;;8.82;2.38;;;19.80;57.90;;;;;;10373301;28;20038;-56
2021/10/17 00:23:04;;;;;;;9.85;2.85;;;19.80;58.10;;;;;;10361137;28;20049;-57
2021/10/17 00:28:05;;;;;;;5.72;2.25;;;19.80;58.00;;;;;;10373387;28;20113;-59
2021/10/17 00:33:07;;;;;;;5.88;2.08;;;19.80;57.90;;;;;;10373458;28;20026;-59
2021/10/17 00:38:07;;;;;;;16.60;2.20;;;19.80;58.00;;;;;;10372336;28;20060;-59
2021/10/17 00:43:08;;;;;;;6.97;2.38;;;19.70;58.00;;;;;;10359769;28;20053;-59
2021/10/17 00:48:08;;;;;;;4.78;2.22;;;19.70;58.00;;;;;;10371468;28;20040;-59
2021/10/17 00:53:09;;;;;;;5.95;2.13;;;19.70;57.90;;;;;;10372766;28;20032;-58
2021/10/17 00:58:10;;;;;;;4.40;1.70;;;19.70;57.80;;;;;;10371443;28;20026;-59
2021/10/17 01:03:10;;;;;;;6.40;2.70;;;19.70;57.90;;;;;;10372288;28;20647;-59
2021/10/17 01:08:11;;;;;;;7.45;2.63;;;19.70;58.00;;;;;;10371230;28;20168;-59
2021/10/17 01:13:17;;;;;;;5.45;1.65;;;19.70;57.80;;;;;;10371757;28;20132;-59
2021/10/17 01:18:19;;;;;;;4.15;2.05;;;19.60;58.00;;;;;;10372024;28;20065;-53
2021/10/17 01:23:20;;;;;;;5.80;1.90;;;19.60;57.90;;;;;;10371157;28;20041;-56
2021/10/17 01:28:22;;;;;;;5.78;2.08;;;19.60;58.00;;;;;;10370164;28;20041;-55
2021/10/17 01:33:22;;;;;;;3.45;1.67;;;19.60;58.00;;;;;;10371029;28;20040;-56
2021/10/17 01:38:23;;;;;;;7.00;2.33;;;19.60;57.90;;;;;;10370892;28;20426;-57
2021/10/17 01:43:27;;;;;;;6.03;1.60;;;19.60;58.00;;;;;;10370616;28;20121;-56
2021/10/17 01:48:28;;;;;;;3.50;1.65;;;19.50;57.90;;;;;;10370617;28;20104;-58
2021/10/17 01:53:29;;;;;;;5.10;1.73;;;19.50;57.90;;;;;;10370634;28;20096;-58
2021/10/17 01:58:30;;;;;;;2.92;1.45;;;19.50;57.90;;;;;;10370444;28;20399;-59
2021/10/17 02:03:30;;;;;;;2.25;1.10;;;19.50;58.30;;;;;;10370246;28;20076;-59
2021/10/17 02:08:31;;;;;;;3.15;1.40;;;19.50;57.70;;;;;;10370246;28;20478;-59
2021/10/17 02:13:32;;;;;;;4.25;2.00;;;19.50;57.80;;;;;;10369542;28;20065;-59
2021/10/17 02:18:33;;;;;;;4.00;1.50;;;19.40;57.80;;;;;;10369794;28;20468;-59
2021/10/17 02:23:33;;;;;;;5.65;1.80;;;19.40;57.70;;;;;;10369254;28;20058;-57
2021/10/17 02:28:35;;;;;;;4.55;1.50;;;19.40;57.70;;;;;;10369286;28;20069;-57
2021/10/17 02:33:35;;;;;;;4.65;1.92;;;19.40;57.70;;;;;;10368515;28;20026;-58
2021/10/17 02:38:36;;;;;;;5.32;1.45;;;19.40;57.80;;;;;;10368745;28;20025;-59
2021/10/17 02:43:36;;;;;;;3.38;1.50;;;19.40;57.80;;;;;;10368594;28;20025;-59
2021/10/17 02:48:37;;;;;;;2.97;1.25;;;19.40;57.70;;;;;;10368628;28;20025;-59
2021/10/17 02:53:38;;;;;;;5.35;1.45;;;19.40;57.70;;;;;;10368430;28;20033;-59
2021/10/17 02:58:38;;;;;;;4.07;2.22;;;19.40;57.70;;;;;;10368749;28;20024;-59
2021/10/17 03:03:39;;;;;;;3.92;1.38;;;19.40;57.70;;;;;;10368277;28;20030;-59
2021/10/17 03:08:39;;;;;;;4.57;1.33;;;19.30;57.60;;;;;;10368262;28;20389;-59
2021/10/17 03:13:40;;;;;;;4.68;1.35;;;19.30;57.70;;;;;;10368039;28;20038;-57
2021/10/17 03:18:40;;;;;;;3.40;1.50;;;19.30;57.60;;;;;;10368095;28;20041;-54
2021/10/17 03:23:41;;;;;;;2.80;1.35;;;19.30;57.70;;;;;;10367792;28;20103;-56
2021/10/17 03:28:41;;;;;;;5.20;1.52;;;19.30;57.60;;;;;;10368297;28;20034;-54
2021/10/17 03:33:42;;;;;;;3.05;1.08;;;19.30;57.60;;;;;;10368042;28;20030;-58
2021/10/17 03:38:42;;;;;;;2.00;0.95;;;19.30;57.60;;;;;;10364989;28;20488;-58
2021/10/17 03:43:43;;;;;;;1.45;0.98;;;19.30;57.60;;;;;;10367805;28;20148;-54
2021/10/17 03:48:43;;;;;;;3.10;1.35;;;19.20;57.60;;;;;;10374662;28;20026;-58
2021/10/17 03:53:44;;;;;;;3.13;1.10;;;19.20;57.50;;;;;;10375084;28;20036;-58
2021/10/17 03:58:44;;;;;;;2.53;1.02;;;19.30;57.50;;;;;;10370011;28;20489;-58
2021/10/17 04:03:45;;;;;;;2.38;0.85;;;19.30;57.50;;;;;;10363833;28;20026;-58
2021/10/17 04:08:45;;;;;;;3.25;1.10;;;19.20;57.50;;;;;;10369498;28;20022;-58
2021/10/17 04:13:46;;;;;;;2.33;1.10;;;19.20;57.50;;;;;;10374492;28;20030;-55
2021/10/17 04:18:46;;;;;;;1.88;1.15;;;19.20;57.40;;;;;;10373072;28;20065;-55
2021/10/17 04:23:47;;;;;;;3.47;1.33;;;19.20;57.40;;;;;;10373878;28;20044;-56
2021/10/17 04:28:48;;;;;;;3.70;0.98;;;19.20;57.50;;;;;;10372973;28;20030;-55
2021/10/17 04:33:48;;;;;;;2.47;1.00;;;19.20;57.50;;;;;;10373837;28;20145;-57
2021/10/17 04:38:51;;;;;;;4.20;1.13;;;19.20;57.50;;;;;;10372064;28;20091;-57
2021/10/17 04:43:51;;;;;;;2.42;0.90;;;19.20;57.50;;;;;;10373375;28;20033;-57
2021/10/17 04:48:52;;;;;;;2.33;0.88;;;19.20;57.40;;;;;;10371992;28;20022;-57
2021/10/17 04:53:52;;;;;;;2.25;0.93;;;19.20;57.50;;;;;;10372768;28;20034;-57
2021/10/17 04:58:53;;;;;;;2.63;0.88;;;19.10;57.40;;;;;;10371416;28;20034;-58
2021/10/17 05:03:54;;;;;;;2.75;1.27;;;19.20;57.50;;;;;;10372428;28;20041;-57
2021/10/17 05:08:54;;;;;;;1.35;0.90;;;19.10;57.40;;;;;;10371258;28;20030;-58
2021/10/17 05:13:55;;;;;;;5.57;0.88;;;19.10;57.40;;;;;;10372101;28;20048;-59
2021/10/17 05:18:56;;;;;;;3.50;1.33;;;19.10;57.40;;;;;;10371003;28;20029;-59
2021/10/17 05:23:56;;;;;;;4.88;1.08;;;19.10;57.40;;;;;;10371342;28;20125;-58
2021/10/17 05:28:57;;;;;;;2.45;0.95;;;19.10;57.30;;;;;;10370389;28;20049;-54
2021/10/17 05:33:57;;;;;;;4.30;1.20;;;19.10;57.40;;;;;;10371339;28;20029;-55
2021/10/17 05:38:58;;;;;;;3.20;0.80;;;19.00;57.30;;;;;;10371388;28;20060;-57
2021/10/17 05:43:58;;;;;;;2.92;0.77;;;19.10;57.40;;;;;;10370969;28;20230;-55
2021/10/17 05:48:59;;;;;;;6.55;1.17;;;19.10;57.30;;;;;;10371049;28;20026;-57
2021/10/17 05:53:59;;;;;;;3.15;0.90;;;19.00;57.30;;;;;;10370544;28;20104;-57
2021/10/17 05:59:00;;;;;;;3.65;1.15;;;19.00;57.30;;;;;;10370429;28;20070;-56
2021/10/17 06:04:00;;;;;;;3.70;1.30;;;19.00;57.40;;;;;;10370177;28;20054;-57
2021/10/17 06:09:01;;;;;;;6.97;1.17;;;19.00;57.30;;;;;;10369413;28;20014;-56
2021/10/17 06:14:02;;;;;;;3.25;1.30;;;19.00;57.20;;;;;;10369845;28;20104;-57
2021/10/17 06:19:02;;;;;;;4.53;1.10;;;19.00;56.70;;;;;;10369821;28;20036;-58
2021/10/17 06:24:03;;;;;;;2.33;1.00;;;19.10;56.80;;;;;;10369372;28;20116;-57
2021/10/17 06:29:04;;;;;;;2.95;0.98;;;19.10;57.40;;;;;;10370080;28;20092;-59
2021/10/17 06:34:05;;;;;;;6.38;1.67;;;19.20;57.30;;;;;;10369239;28;20061;-56
2021/10/17 06:39:05;;;;;;;2.55;1.00;;;19.30;56.90;;;;;;10369491;28;20026;-57
2021/10/17 06:44:06;;;;;;;4.05;1.30;;;19.40;56.80;;;;;;10368855;28;20040;-55
2021/10/17 06:49:07;;;;;;;3.88;0.82;;;19.50;56.80;;;;;;10368844;28;20028;-56
2021/10/17 06:54:07;;;;;;;2.55;0.90;;;19.60;56.60;;;;;;10368676;28;20084;-59
2021/10/17 06:59:08;;;;;;;3.70;1.40;;;19.80;56.40;;;;;;10368648;28;20037;-59
2021/10/17 07:04:08;;;;;;;3.83;1.42;;;19.90;56.30;;;;;;10368205;28;20032;-59
2021/10/17 07:09:09;;;;;;;5.28;1.00;;;20.00;56.30;;;;;;10368041;28;20045;-59
2021/10/17 07:14:10;;;;;;;2.60;1.27;;;20.00;56.10;;;;;;10367796;28;20433;-59
2021/10/17 07:19:10;;;;;;;5.95;1.33;;;20.10;56.10;;;;;;10367860;28;20037;-59
2021/10/17 07:24:11;;;;;;;8.30;1.92;;;20.10;56.00;;;;;;10367447;28;20038;-59
2021/10/17 07:29:11;;;;;;;2.33;0.90;;;20.20;56.00;;;;;;10367868;28;20062;-59
2021/10/17 07:34:12;;;;;;;3.92;0.95;;;20.30;55.90;;;;;;10367439;28;20038;-59
2021/10/17 07:39:13;;;;;;;2.33;0.65;;;20.30;55.80;;;;;;10367671;28;20396;-59
2021/10/17 07:44:15;;;;;;;6.15;1.00;;;20.40;55.70;;;;;;10367176;28;20109;-60
2021/10/17 07:49:16;;;;;;;3.28;1.20;;;20.40;55.60;;;;;;10367476;28;20026;-59
2021/10/17 07:54:16;;;;;;;3.40;0.90;;;20.50;55.40;;;;;;10367235;28;20120;-60
2021/10/17 07:59:17;;;;;;;6.93;1.33;;;20.50;55.20;;;;;;10367306;28;20405;-59
2021/10/17 08:04:17;;;;;;;3.45;0.90;;;20.60;55.20;;;;;;10366841;28;20054;-59
2021/10/17 08:09:18;;;;;;;12.40;2.17;;;20.60;55.20;;;;;;10366745;28;20101;-54
2021/10/17 08:14:18;;;;;;;8.85;1.40;;;20.60;55.10;;;;;;10366524;28;20117;-55
2021/10/17 08:19:19;;;;;;;12.13;1.50;;;20.60;55.20;;;;;;10366526;28;20108;-54
2021/10/17 08:24:19;;;;;;;22.17;3.40;;;20.60;55.30;;;;;;10365341;28;20028;-56
2021/10/17 08:29:20;;;;;;;12.40;2.95;;;20.60;55.40;;;;;;10354425;28;20042;-58
2021/10/17 08:34:21;;;;;;;28.02;4.80;;;20.60;55.40;;;;;;10331909;28;20551;-57
2021/10/17 08:39:21;;;;;;;16.17;3.05;;;20.50;55.50;;;;;;10359421;28;20409;-58
2021/10/17 08:44:22;;;;;;;34.25;5.25;;;20.50;55.70;;;;;;10373520;28;20113;-57
2021/10/17 08:49:22;;;;;;;18.35;4.05;;;20.50;55.80;;;;;;10361143;28;20113;-58
2021/10/17 08:54:23;;;;;;;22.90;5.93;;;20.50;55.80;;;;;;10373638;28;20018;-56
2021/10/17 08:59:24;;;;;;;16.63;3.92;;;20.50;55.90;;;;;;10372272;28;20038;-58
2021/10/17 09:04:27;;;;;;;21.15;6.30;;;20.40;56.10;;;;;;10372853;28;20033;-56
2021/10/17 09:09:28;;;;;;;30.23;6.30;;;20.50;56.10;;;;;;10371011;28;20508;-56
2021/10/17 09:14:30;;;;;;;19.63;5.07;;;20.50;56.20;;;;;;10372610;28;20092;-58
2021/10/17 09:19:32;;;;;;;20.13;4.97;;;20.50;56.30;;;;;;10365814;28;20035;-55
2021/10/17 09:24:34;;;;;;;24.63;6.03;;;20.50;56.40;;;;;;10372473;28;20135;-57
2021/10/17 09:29:36;;;;;;;27.38;5.38;;;20.40;56.50;;;;;;10370922;28;20026;-58
2021/10/17 09:34:36;;;;;;;15.70;6.28;;;20.40;56.50;;;;;;10371974;28;20030;-58
2021/10/17 09:39:45;;;;;;;21.63;6.07;;;20.40;56.70;;;;;;10349306;28;20068;-53
2021/10/17 09:44:49;;;;;;;26.55;5.20;;;20.40;56.70;;;;;;10355438;28;20481;-56
2021/10/17 09:50:13;;;;;;;16.77;5.25;;;20.40;56.90;;;;;;10348694;28;20104;-57
2021/10/17 09:55:14;;;;;;;20.70;5.63;;;20.40;56.90;;;;;;10363561;28;20046;-54
2021/10/17 10:00:15;;;;;;;16.73;4.75;;;20.40;57.10;;;;;;10365054;28;20042;-57
2021/10/17 10:08:09;;;;;;;16.70;4.75;;;20.40;56.80;;;;;;10566294;27;20207;-61
2021/10/17 10:13:10;;;;;;;19.35;4.15;;;20.50;57.20;;;;;;10512706;28;20099;-59
2021/10/17 10:18:12;;;;;;;20.52;4.55;;;20.60;57.00;;;;;;10537432;28;20081;-61
2021/10/17 10:23:13;;;;;;;24.38;5.53;;;20.70;57.00;;;;;;10515750;28;20093;-60
2021/10/17 10:28:14;;;;;;;32.65;5.65;;;20.70;56.90;;;;;;10518798;28;20487;-60
2021/10/17 10:33:17;;;;;;;29.50;5.55;;;20.70;56.20;;;;;;10495737;28;20486;-60
2021/10/17 10:38:38;;;;;;;21.40;4.18;;;20.70;56.10;;;;;;10431777;27;20041;-57
2021/10/17 10:43:38;;;;;;;25.67;5.78;;;20.70;56.10;;;;;;10393207;28;20025;-59
2021/10/17 10:48:47;;;;;;;23.17;4.78;;;20.70;56.60;;;;;;10400395;28;20477;-53
2021/10/17 10:53:54;;;;;;;31.57;6.07;;;20.80;57.30;;;;;;10370243;28;20034;-59
2021/10/17 10:58:55;;;;;;;25.17;4.57;;;20.70;57.20;;;;;;10387404;28;20044;-60
2021/10/17 11:03:55;;;;;;;26.95;5.00;;;20.70;57.20;;;;;;10387148;28;20474;-61
2021/10/17 11:09:22;;;;;;;25.67;4.60;;;20.60;57.30;;;;;;10384877;28;20036;-58
2021/10/17 11:14:22;;;;;;;31.10;5.95;;;20.60;57.50;;;;;;10374476;28;20041;-60
2021/10/17 11:19:23;;;;;;;26.65;8.35;;;20.60;58.00;;;;;;10363769;28;20040;-61
2021/10/17 11:24:24;;;;;;;29.95;6.75;;;20.70;57.60;;;;;;10373003;28;20038;-59
2021/10/17 11:29:41;;;;;;;25.77;6.35;;;20.60;58.00;;;;;;10363582;28;20026;-58
2021/10/17 11:34:42;;;;;;;24.33;5.35;;;20.60;57.60;;;;;;10370852;28;20022;-58
2021/10/17 11:40:00;;;;;;;19.48;6.10;;;20.60;57.80;;;;;;10370226;28;20038;-55
2021/10/17 11:45:01;;;;;;;19.35;6.15;;;20.60;58.00;;;;;;10372354;28;20029;-57
2021/10/17 11:50:01;;;;;;;28.17;9.45;;;20.60;58.00;;;;;;10372237;28;20216;-57
2021/10/17 11:55:02;;;;;;;31.80;10.23;;;20.60;58.10;;;;;;10372255;28;20426;-59
2021/10/17 12:00:07;;;;;;;29.42;8.77;;;20.50;58.10;;;;;;10371897;28;20033;-57
2021/10/17 12:05:17;;;;;;;29.55;6.80;;;20.60;58.10;;;;;;10371560;28;20040;-59
2021/10/17 12:10:18;;;;;;;26.70;7.35;;;20.50;58.30;;;;;;10371543;28;20026;-58
2021/10/17 12:15:18;;;;;;;28.63;8.57;;;20.50;58.60;;;;;;10372230;28;20535;-57
2021/10/17 12:20:19;;;;;;;15.93;5.60;;;20.50;58.70;;;;;;10371761;28;20041;-59
2021/10/17 12:25:20;;;;;;;23.27;6.30;;;20.60;58.70;;;;;;10349290;28;20484;-60
2021/10/17 12:30:36;;;;;;;16.90;6.10;;;20.60;58.70;;;;;;10329663;28;20113;-58
2021/10/17 12:35:39;;;;;;;21.58;6.72;;;20.60;58.80;;;;;;10341308;28;20489;-54
2021/10/17 12:41:05;;;;;;;13.07;4.45;;;20.60;58.00;;;;;;10369523;28;20520;-57
2021/10/17 12:46:18;;;;;;;16.38;4.78;;;20.50;58.60;;;;;;10370376;28;20523;-54
2021/10/17 12:51:26;;;;;;;18.42;5.45;;;20.50;58.30;;;;;;10369950;28;20022;-56
2021/10/17 12:56:26;;;;;;;18.38;4.53;;;20.50;59.00;;;;;;10369102;28;20393;-58
2021/10/17 13:01:27;;;;;;;10.15;4.28;;;20.50;59.10;;;;;;10337685;28;20042;-52
2021/10/17 13:06:28;;;;;;;22.40;4.38;;;20.50;59.20;;;;;;10366103;28;20053;-59
2021/10/17 13:11:35;;;;;;;14.65;4.25;;;20.50;59.70;;;;;;10382751;28;20049;-57
2021/10/17 13:16:41;;;;;;;14.25;5.75;;;20.50;60.10;;;;;;10367868;28;20033;-57
2021/10/17 13:21:42;;;;;;;15.60;4.15;;;20.50;60.40;;;;;;10368531;28;20052;-58
2021/10/17 13:26:48;;;;;;;18.15;5.03;;;20.50;61.70;;;;;;10368013;28;20469;-58
2021/10/17 13:31:48;;;;;;;12.43;3.47;;;20.50;61.50;;;;;;10368322;28;20385;-56
2021/10/17 13:36:49;;;;;;;12.80;3.67;;;20.40;60.60;;;;;;10368238;28;20032;-52
2021/10/17 13:41:49;;;;;;;9.88;3.22;;;20.30;63.00;;;;;;10367817;28;20117;-56
2021/10/17 13:46:50;;;;;;;11.55;3.55;;;20.30;64.40;;;;;;10368403;28;20030;-58
2021/10/17 13:51:50;;;;;;;11.50;3.15;;;20.30;64.80;;;;;;10368423;28;20072;-55
2021/10/17 13:56:57;;;;;;;8.13;3.17;;;20.30;65.00;;;;;;10368561;28;20029;-55
2021/10/17 14:02:00;;;;;;;11.88;3.80;;;20.30;65.30;;;;;;10368315;28;20397;-56
2021/10/17 14:07:01;;;;;;;11.77;4.03;;;20.20;65.70;;;;;;10365680;28;20049;-55
2021/10/17 14:12:02;;;;;;;12.98;2.90;;;20.20;65.10;;;;;;10366667;28;20024;-57
2021/10/17 14:17:03;;;;;;;5.43;2.88;;;20.20;65.30;;;;;;10366792;28;20516;-58
2021/10/17 14:22:04;;;;;;;6.43;3.38;;;20.10;65.90;;;;;;10353406;28;20030;-59
2021/10/17 14:27:05;;;;;;;11.93;3.42;;;20.10;65.70;;;;;;10365915;28;20034;-58
2021/10/17 14:32:06;;;;;;;5.97;2.83;;;20.10;66.40;;;;;;10359777;28;20485;-55
2021/10/17 14:37:07;;;;;;;6.72;2.40;;;20.10;65.70;;;;;;10359910;28;20760;-54
2021/10/17 14:42:08;;;;;;;4.75;2.10;;;20.00;66.20;;;;;;10359829;28;20455;-54
2021/10/17 14:47:09;;;;;;;19.48;3.05;;;20.10;66.20;;;;;;10364674;28;20029;-57
2021/10/17 14:52:10;;;;;;;5.80;2.25;;;20.10;66.30;;;;;;10370550;28;20029;-58
2021/10/17 14:57:10;;;;;;;7.03;2.70;;;20.10;66.50;;;;;;10373851;28;20480;-55
2021/10/17 15:02:11;;;;;;;6.18;2.25;;;20.10;66.70;;;;;;10373837;28;20083;-58
2021/10/17 15:07:11;;;;;;;5.55;2.30;;;20.10;65.90;;;;;;10373172;28;20428;-57
2021/10/17 15:12:12;;;;;;;8.57;3.03;;;20.10;66.60;;;;;;10373178;28;20030;-60
2021/10/17 15:17:13;;;;;;;6.13;2.42;;;20.10;67.20;;;;;;10372475;28;20034;-57
2021/10/17 15:22:14;;;;;;;4.57;1.90;;;20.10;67.10;;;;;;10359375;28;20109;-57
2021/10/17 15:27:15;;;;;;;3.58;2.05;;;20.10;65.80;;;;;;10370328;28;20034;-59
2021/10/17 15:32:15;;;;;;;6.78;2.58;;;20.10;67.10;;;;;;10366330;28;20077;-58
2021/10/17 15:37:16;;;;;;;11.75;3.10;;;20.10;67.40;;;;;;10371407;28;20061;-57
2021/10/17 15:42:18;;;;;;;5.05;2.00;;;20.10;67.70;;;;;;10372459;28;20022;-57
2021/10/17 15:47:19;;;;;;;7.18;1.48;;;20.10;65.90;;;;;;10359041;28;20030;-57
2021/10/17 15:52:19;;;;;;;3.63;1.60;;;20.10;67.10;;;;;;10372421;28;20477;-59
2021/10/17 15:57:20;;;;;;;3.22;1.75;;;20.10;67.60;;;;;;10365969;28;20173;-57
2021/10/17 16:02:21;;;;;;;5.22;1.60;;;20.10;67.70;;;;;;10367770;28;20026;-54
2021/10/17 16:07:22;;;;;;;2.72;1.65;;;20.10;66.30;;;;;;10369939;28;20030;-59
2021/10/17 16:12:23;;;;;;;4.72;1.48;;;20.10;67.60;;;;;;10370656;28;20618;-58
2021/10/17 16:17:23;;;;;;;5.97;1.55;;;20.10;67.60;;;;;;10369627;28;20033;-58
2021/10/17 16:22:24;;;;;;;4.28;1.83;;;20.10;67.80;;;;;;10345528;28;20034;-55
2021/10/17 16:27:27;;;;;;;5.00;1.98;;;20.10;67.10;;;;;;10370730;28;20030;-56
2021/10/17 16:32:33;;;;;;;2.75;1.40;;;20.10;67.00;;;;;;10371053;28;20036;-58
2021/10/17 16:37:35;;;;;;;3.25;1.27;;;20.10;67.90;;;;;;10370618;28;20026;-57
2021/10/17 16:42:35;;;;;;;3.30;1.55;;;20.10;68.00;;;;;;10370254;28;20026;-59
2021/10/17 16:47:36;;;;;;;3.70;1.30;;;20.10;66.10;;;;;;10370419;28;20416;-56
2021/10/17 16:52:36;;;;;;;3.90;1.75;;;20.10;66.20;;;;;;10370239;28;20480;-58
2021/10/17 16:57:37;;;;;;;3.28;1.63;;;20.10;66.40;;;;;;10370199;28;20034;-57
2021/10/17 17:02:37;;;;;;;4.95;1.95;;;20.10;66.60;;;;;;10369785;28;20034;-56
2021/10/17 17:07:38;;;;;;;4.05;2.05;;;20.10;65.10;;;;;;10370152;28;20607;-54
2021/10/17 17:12:38;;;;;;;3.13;1.42;;;20.10;65.60;;;;;;10370296;28;20022;-53
2021/10/17 17:17:42;;;;;;;3.40;1.33;;;20.10;66.10;;;;;;10369979;28;20037;-58
2021/10/17 17:22:43;;;;;;;3.92;1.60;;;20.10;65.60;;;;;;10369713;28;20041;-55
2021/10/17 17:27:52;;;;;;;3.67;1.30;;;20.10;65.40;;;;;;10369363;28;20218;-58
2021/10/17 17:32:52;;;;;;;3.63;1.60;;;20.10;66.50;;;;;;10368793;28;20078;-57
2021/10/17 17:37:53;;;;;;;5.40;1.70;;;20.10;65.70;;;;;;10368940;28;20583;-54
2021/10/17 17:42:54;;;;;;;2.63;1.48;;;20.10;65.20;;;;;;10368714;28;20026;-57
2021/10/17 17:47:54;;;;;;;4.13;1.75;;;20.10;65.20;;;;;;10368301;28;20087;-58
2021/10/17 17:52:54;;;;;;;3.38;1.35;;;20.10;65.60;;;;;;10368105;28;20724;-59
2021/10/17 17:57:55;;;;;;;2.85;1.40;;;20.20;65.70;;;;;;10368334;28;20041;-54
2021/10/17 18:02:56;;;;;;;2.92;1.50;;;20.30;65.60;;;;;;10367820;28;20481;-56
2021/10/17 18:07:56;;;;;;;2.47;1.20;;;20.30;65.40;;;;;;10382995;28;20026;-51
2021/10/17 18:12:57;;;;;;;3.33;1.65;;;20.40;65.30;;;;;;10367539;28;20026;-57
2021/10/17 18:17:57;;;;;;;2.80;1.15;;;20.40;65.00;;;;;;10367849;28;20029;-59
2021/10/17 18:22:58;;;;;;;2.92;1.17;;;20.40;64.90;;;;;;10368178;28;20381;-57
2021/10/17 18:27:58;;;;;;;2.60;1.20;;;20.50;64.80;;;;;;10372416;28;20032;-58
2021/10/17 18:32:59;;;;;;;4.50;1.48;;;20.50;64.60;;;;;;10375762;28;20056;-54
2021/10/17 18:37:59;;;;;;;4.72;1.20;;;20.50;64.40;;;;;;10375586;28;20034;-56
2021/10/17 18:43:00;;;;;;;2.47;1.38;;;20.60;64.40;;;;;;10375115;28;20052;-56
2021/10/17 18:48:00;;;;;;;3.92;1.67;;;20.60;64.30;;;;;;10371965;28;20028;-58
2021/10/17 18:53:01;;;;;;;2.70;1.48;;;20.60;64.20;;;;;;10374920;28;20030;-59
2021/10/17 18:58:02;;;;;;;2.72;1.42;;;20.60;64.10;;;;;;10372640;28;20036;-56
2021/10/17 19:03:02;;;;;;;3.78;1.40;;;20.60;64.20;;;;;;10359954;28;20049;-56
2021/10/17 19:08:04;;;;;;;2.60;1.38;;;20.60;64.00;;;;;;10371964;28;20416;-56
2021/10/17 19:13:04;;;;;;;1.88;1.17;;;20.60;64.00;;;;;;10373530;28;20029;-60
2021/10/17 19:18:08;;;;;;;2.67;1.25;;;20.60;63.90;;;;;;10371525;28;20026;-55
2021/10/17 19:23:11;;;;;;;3.08;1.63;;;20.60;63.90;;;;;;10360032;28;20097;-57
2021/10/17 19:28:12;;;;;;;2.15;1.15;;;20.60;63.90;;;;;;10370594;28;20026;-57
2021/10/17 19:33:13;;;;;;;1.80;1.10;;;20.70;64.00;;;;;;10362100;28;20380;-58
2021/10/17 19:38:14;;;;;;;9.80;2.28;;;20.60;63.70;;;;;;10369602;28;20547;-57
2021/10/17 19:43:14;;;;;;;3.70;1.60;;;20.60;61.50;;;;;;10372972;28;20022;-58
2021/10/17 19:48:15;;;;;;;4.90;1.20;;;20.60;62.70;;;;;;10357264;28;20030;-60
2021/10/17 19:53:15;;;;;;;6.47;1.50;;;20.60;62.70;;;;;;10368283;28;20507;-60
2021/10/17 19:58:16;;;;;;;5.43;1.48;;;20.60;62.70;;;;;;10348150;28;20528;-58
2021/10/17 20:03:17;;;;;;;8.35;1.67;;;20.60;63.00;;;;;;10356970;28;20065;-57
2021/10/17 20:08:17;;;;;;;7.00;2.10;;;20.60;63.20;;;;;;10353455;28;20568;-56
2021/10/17 20:13:18;;;;;;;4.38;1.63;;;20.60;63.20;;;;;;10354302;28;20105;-57
2021/10/17 20:18:19;;;;;;;4.68;2.00;;;20.60;63.30;;;;;;10353651;28;20113;-58
2021/10/17 20:23:19;;;;;;;4.78;1.77;;;20.60;63.30;;;;;;10347459;28;20081;-59
2021/10/17 20:28:21;;;;;;;7.60;1.60;;;20.50;63.20;;;;;;10357051;28;20046;-59
2021/10/17 20:33:21;;;;;;;8.38;2.20;;;20.60;63.30;;;;;;10368675;28;20033;-60
2021/10/17 20:38:31;;;;;;;7.07;1.50;;;20.50;63.40;;;;;;10361577;28;20036;-59
2021/10/17 20:43:32;;;;;;;5.55;2.00;;;20.60;64.00;;;;;;10333232;28;20038;-60
2021/10/17 20:48:32;;;;;;;6.10;1.48;;;20.50;63.60;;;;;;10332509;28;20034;-60
2021/10/17 20:53:33;;;;;;;7.18;2.05;;;20.50;64.80;;;;;;10332109;28;20027;-57
2021/10/17 20:58:33;;;;;;;5.15;2.03;;;20.50;64.90;;;;;;10362980;28;20424;-57
2021/10/17 21:03:34;;;;;;;7.88;2.40;;;20.50;64.70;;;;;;10371204;28;20476;-58
2021/10/17 21:08:35;;;;;;;4.82;1.00;;;20.50;64.80;;;;;;10365758;28;20085;-60
2021/10/17 21:13:36;;;;;;;12.60;2.08;;;20.40;64.90;;;;;;10346310;28;20723;-60
2021/10/17 21:18:36;;;;;;;6.22;1.85;;;20.40;64.90;;;;;;10370480;28;20025;-61
2021/10/17 21:23:37;;;;;;;2.08;1.20;;;20.40;65.00;;;;;;10343670;28;20113;-59
2021/10/17 21:28:38;;;;;;;7.57;2.90;;;20.30;65.00;;;;;;10344525;28;20028;-59
2021/10/17 21:33:41;;;;;;;3.00;1.33;;;20.30;65.00;;;;;;10369444;28;20105;-59
2021/10/17 21:38:42;;;;;;;5.25;1.48;;;20.30;64.90;;;;;;10366131;28;20088;-58
2021/10/17 21:43:43;;;;;;;4.88;1.27;;;20.30;65.10;;;;;;10364662;28;20075;-59
2021/10/17 21:48:43;;;;;;;3.55;1.17;;;20.30;64.80;;;;;;10366097;28;20019;-56
2021/10/17 21:53:44;;;;;;;7.30;1.63;;;20.20;64.60;;;;;;10358469;28;20025;-58
2021/10/17 21:58:45;;;;;;;4.95;1.25;;;20.20;64.60;;;;;;10368674;28;20105;-56
2021/10/17 22:03:45;;;;;;;6.18;1.30;;;20.20;64.50;;;;;;10345677;28;20124;-55
2021/10/17 22:08:46;;;;;;;5.95;1.60;;;20.10;64.50;;;;;;10366743;28;20489;-57
2021/10/17 22:13:47;;;;;;;4.60;1.45;;;20.10;64.30;;;;;;10366945;28;20026;-57
2021/10/17 22:18:48;;;;;;;7.18;1.80;;;20.10;64.30;;;;;;10362059;28;20026;-56
2021/10/17 22:23:48;;;;;;;9.05;1.80;;;20.10;64.30;;;;;;10354952;28;20485;-52
2021/10/17 22:28:49;;;;;;;4.63;1.33;;;20.10;64.30;;;;;;10369295;28;20029;-59
2021/10/17 22:33:50;;;;;;;4.30;1.85;;;20.00;64.30;;;;;;10359797;28;20081;-56
2021/10/17 22:38:51;;;;;;;6.72;1.70;;;20.00;64.30;;;;;;10363476;28;20030;-55
2021/10/17 22:43:51;;;;;;;2.67;1.17;;;20.00;64.40;;;;;;10367137;28;20037;-59
2021/10/17 22:48:52;;;;;;;5.10;1.35;;;20.00;64.40;;;;;;10346956;28;20053;-56
2021/10/17 22:53:53;;;;;;;8.50;1.70;;;20.00;64.20;;;;;;10366007;28;20362;-60
2021/10/17 22:58:53;;;;;;;9.85;2.55;;;20.00;64.30;;;;;;10367875;28;20034;-56
2021/10/17 23:03:54;;;;;;;13.73;2.40;;;19.90;64.10;;;;;;10368077;28;20104;-57
2021/10/17 23:08:54;;;;;;;10.68;2.15;;;19.90;64.30;;;;;;10367846;28;20030;-60
2021/10/17 23:13:55;;;;;;;6.18;1.48;;;19.90;64.50;;;;;;10371559;28;20038;-58
2021/10/17 23:18:56;;;;;;;5.15;1.48;;;19.90;64.30;;;;;;10374671;28;20026;-59
2021/10/17 23:23:56;;;;;;;4.97;1.45;;;19.90;64.20;;;;;;10373883;28;20074;-55
2021/10/17 23:28:57;;;;;;;4.47;1.83;;;19.80;64.20;;;;;;10373749;28;20026;-58
2021/10/17 23:33:57;;;;;;;7.60;1.88;;;19.80;64.00;;;;;;10373635;28;20175;-62
2021/10/17 23:38:58;;;;;;;6.82;1.90;;;19.80;64.20;;;;;;10373308;28;20058;-59
2021/10/17 23:43:58;;;;;;;3.83;1.13;;;19.80;64.00;;;;;;10372818;28;20064;-61
2021/10/17 23:48:59;;;;;;;6.60;2.65;;;19.70;64.00;;;;;;10372214;28;20397;-60
2021/10/17 23:54:00;;;;;;;3.60;1.50;;;19.70;64.10;;;;;;10373334;28;20485;-58
2021/10/17 23:59:00;;;;;;;4.57;1.48;;;19.70;63.80;;;;;;10373603;28;20026;-60
